createdAt,value
2024-01-16T00:00:54.428Z,24.10
2024-01-16T00:02:56.548Z,26.40
2024-01-16T00:04:59.333Z,21.00
2024-01-16T00:07:01.672Z,24.90
2024-01-16T00:09:04.502Z,24.00
2024-01-16T00:11:06.281Z,21.70
2024-01-16T00:13:08.054Z,25.60
2024-01-16T00:15:10.805Z,21.60
2024-01-16T00:17:12.897Z,22.20
2024-01-16T00:19:15.123Z,23.20
2024-01-16T00:21:17.153Z,24.80
2024-01-16T00:23:19.263Z,21.60
2024-01-16T00:25:21.544Z,24.20
2024-01-16T00:27:23.479Z,22.50
2024-01-16T00:29:25.649Z,22.40
2024-01-16T00:31:27.512Z,21.30
2024-01-16T00:33:29.400Z,21.30
2024-01-16T00:35:31.434Z,18.80
2024-01-16T00:37:33.329Z,24.10
2024-01-16T00:39:36.233Z,20.90
2024-01-16T00:41:38.300Z,22.00
2024-01-16T00:43:40.524Z,23.00
2024-01-16T00:45:43.975Z,20.00
2024-01-16T00:47:45.899Z,22.50
2024-01-16T00:49:48.688Z,18.30
2024-01-16T00:51:53.706Z,21.20
2024-01-16T00:53:55.455Z,20.70
2024-01-16T00:55:57.306Z,21.90
2024-01-16T00:57:59.005Z,22.40
2024-01-16T01:00:00.661Z,23.90
2024-01-16T01:02:04.883Z,24.30
2024-01-16T01:04:06.920Z,24.30
2024-01-16T01:06:11.344Z,24.60
2024-01-16T01:08:13.237Z,22.20
2024-01-16T01:10:16.822Z,23.70
2024-01-16T01:12:18.656Z,27.30
2024-01-16T01:14:20.444Z,27.70
2024-01-16T01:16:22.568Z,25.50
2024-01-16T01:18:24.746Z,26.30
2024-01-16T01:20:27.153Z,29.60
2024-01-16T01:22:29.365Z,25.40
2024-01-16T01:24:31.353Z,31.00
2024-01-16T01:26:33.648Z,30.80
2024-01-16T01:28:35.514Z,29.30
2024-01-16T01:30:37.281Z,26.70
2024-01-16T01:32:39.694Z,30.00
2024-01-16T01:34:47.463Z,28.00
2024-01-16T01:36:49.455Z,28.90
2024-01-16T01:38:51.182Z,31.50
2024-01-16T01:40:53.062Z,32.10
2024-01-16T01:42:54.798Z,26.60
2024-01-16T01:44:56.513Z,27.90
2024-01-16T01:46:58.977Z,30.90
2024-01-16T01:49:01.125Z,33.50
2024-01-16T01:51:04.206Z,24.50
2024-01-16T01:53:05.885Z,31.30
2024-01-16T01:55:13.797Z,27.90
2024-01-16T01:57:16.873Z,30.30
2024-01-16T01:59:19.934Z,31.20
2024-01-16T02:01:23.771Z,28.60
2024-01-16T02:03:29.187Z,34.00
2024-01-16T02:05:32.418Z,29.70
2024-01-16T02:07:36.178Z,29.70
2024-01-16T02:09:39.029Z,24.90
2024-01-16T02:11:42.473Z,25.20
2024-01-16T02:13:44.524Z,28.30
2024-01-16T02:15:46.867Z,29.30
2024-01-16T02:17:49.173Z,32.30
2024-01-16T02:19:51.300Z,28.20
2024-01-16T02:22:00.163Z,25.90
2024-01-16T02:24:02.926Z,29.20
2024-01-16T02:26:05.791Z,25.60
2024-01-16T02:28:07.504Z,25.10
2024-01-16T02:30:09.400Z,26.80
2024-01-16T02:32:14.166Z,28.40
2024-01-16T02:36:18.122Z,24.80
2024-01-16T02:38:20.367Z,24.40
2024-01-16T02:40:22.451Z,29.80
2024-01-16T02:42:24.088Z,28.50
2024-01-16T02:44:26.003Z,31.70
2024-01-16T02:46:27.717Z,30.20
2024-01-16T02:48:30.180Z,30.20
2024-01-16T02:50:32.074Z,32.80
2024-01-16T02:52:33.907Z,27.30
2024-01-16T02:54:35.585Z,32.70
2024-01-16T02:56:37.421Z,26.60
2024-01-16T02:58:39.562Z,30.30
2024-01-16T03:00:41.344Z,30.10
2024-01-16T03:02:43.201Z,32.00
2024-01-16T03:04:45.168Z,32.80
2024-01-16T03:06:46.880Z,28.90
2024-01-16T03:08:48.788Z,29.20
2024-01-16T03:10:53.008Z,23.40
2024-01-16T03:12:57.109Z,27.00
2024-01-16T03:14:58.824Z,27.80
2024-01-16T03:17:03.169Z,25.10
2024-01-16T03:19:04.919Z,30.20
2024-01-16T03:21:07.944Z,27.20
2024-01-16T03:23:09.980Z,27.60
2024-01-16T03:25:13.510Z,32.60
2024-01-16T03:27:15.365Z,31.40
2024-01-16T03:29:19.882Z,31.30
2024-01-16T03:31:22.781Z,32.50
2024-01-16T03:33:24.722Z,27.90
2024-01-16T03:35:26.906Z,29.50
2024-01-16T03:37:28.841Z,25.40
2024-01-16T03:39:30.656Z,29.00
2024-01-16T03:41:32.637Z,29.90
2024-01-16T03:43:35.915Z,26.10
2024-01-16T03:45:37.685Z,33.70
2024-01-16T03:47:39.497Z,27.10
2024-01-16T03:49:41.342Z,29.60
2024-01-16T03:51:47.478Z,32.60
2024-01-16T03:53:49.728Z,27.70
2024-01-16T03:55:52.392Z,31.20
2024-01-16T03:57:54.321Z,31.10
2024-01-16T03:59:56.059Z,32.40
2024-01-16T04:01:57.828Z,27.60
2024-01-16T04:03:59.558Z,26.30
2024-01-16T04:06:01.611Z,33.20
2024-01-16T04:08:05.561Z,29.20
2024-01-16T04:10:08.323Z,29.90
2024-01-16T04:12:10.279Z,27.70
2024-01-16T04:14:12.252Z,25.20
2024-01-16T04:16:14.246Z,29.70
2024-01-16T04:18:16.037Z,29.30
2024-01-16T04:20:17.960Z,27.80
2024-01-16T04:22:19.998Z,27.50
2024-01-16T04:24:21.749Z,28.30
2024-01-16T04:26:23.621Z,24.60
2024-01-16T04:28:25.404Z,27.60
2024-01-16T04:30:27.222Z,26.40
2024-01-16T04:32:29.005Z,29.10
2024-01-16T04:34:31.302Z,27.90
2024-01-16T04:36:33.144Z,24.00
2024-01-16T04:38:34.995Z,28.10
2024-01-16T04:40:37.012Z,26.70
2024-01-16T04:42:38.852Z,24.30
2024-01-16T04:44:40.626Z,23.60
2024-01-16T04:46:42.695Z,26.50
2024-01-16T04:48:44.844Z,25.70
2024-01-16T04:50:48.312Z,23.70
2024-01-16T04:52:52.975Z,24.60
2024-01-16T04:54:56.234Z,23.80
2024-01-16T04:56:57.949Z,26.60
2024-01-16T04:58:59.842Z,26.50
2024-01-16T05:01:01.658Z,23.60
2024-01-16T05:03:07.307Z,25.60
2024-01-16T05:05:09.206Z,30.60
2024-01-16T05:07:11.042Z,27.40
2024-01-16T05:09:13.440Z,29.60
2024-01-16T05:11:15.494Z,31.40
2024-01-16T05:13:17.359Z,29.30
2024-01-16T05:15:19.124Z,30.90
2024-01-16T05:17:22.518Z,29.30
2024-01-16T05:19:24.648Z,29.50
2024-01-16T05:21:26.471Z,28.20
2024-01-16T05:23:28.646Z,28.00
2024-01-16T05:25:31.363Z,34.90
2024-01-16T05:27:33.075Z,33.20
2024-01-16T05:29:34.926Z,34.30
2024-01-16T05:31:42.667Z,32.70
2024-01-16T05:33:44.944Z,33.60
2024-01-16T05:35:46.894Z,29.90
2024-01-16T05:37:49.050Z,34.20
2024-01-16T05:39:50.795Z,31.50
2024-01-16T05:41:53.203Z,32.40
2024-01-16T05:43:55.020Z,34.30
2024-01-16T05:45:56.881Z,34.00
2024-01-16T05:47:59.820Z,28.30
2024-01-16T05:50:01.765Z,31.70
2024-01-16T05:52:03.700Z,26.50
2024-01-16T05:54:05.631Z,41.40
2024-01-16T05:56:07.292Z,32.20
2024-01-16T05:58:11.708Z,29.40
2024-01-16T06:00:19.139Z,27.00
2024-01-16T06:02:20.834Z,24.70
2024-01-16T06:04:23.309Z,24.00
2024-01-16T06:06:25.127Z,32.60
2024-01-16T06:08:26.938Z,26.90
2024-01-16T06:10:28.888Z,27.80
2024-01-16T06:12:30.542Z,25.60
2024-01-16T06:14:32.243Z,23.70
2024-01-16T06:16:34.049Z,25.70
2024-01-16T06:18:37.389Z,24.80
2024-01-16T06:20:40.776Z,27.80
2024-01-16T06:22:42.678Z,23.00
2024-01-16T06:24:44.388Z,26.50
2024-01-16T06:26:48.292Z,24.60
2024-01-16T06:28:50.353Z,27.30
2024-01-16T06:30:52.333Z,26.20
2024-01-16T06:32:54.326Z,26.90
2024-01-16T06:34:56.572Z,27.70
2024-01-16T06:36:58.468Z,28.90
2024-01-16T06:39:00.296Z,23.50
2024-01-16T06:41:02.819Z,27.80
2024-01-16T06:43:04.652Z,26.40
2024-01-16T06:45:07.100Z,24.80
2024-01-16T06:47:08.949Z,22.30
2024-01-16T06:49:10.892Z,23.70
2024-01-16T06:51:15.150Z,25.70
2024-01-16T06:53:17.329Z,25.10
2024-01-16T06:55:19.657Z,25.70
2024-01-16T06:57:21.410Z,28.70
2024-01-16T06:59:23.261Z,25.10
2024-01-16T07:01:26.781Z,23.40
2024-01-16T07:03:28.427Z,23.60
2024-01-16T07:05:31.003Z,25.40
2024-01-16T07:07:33.152Z,23.20
2024-01-16T07:09:35.125Z,22.10
2024-01-16T07:11:37.114Z,26.40
2024-01-16T07:13:39.139Z,24.40
2024-01-16T07:15:40.893Z,25.80
2024-01-16T07:17:42.667Z,22.60
2024-01-16T07:19:44.812Z,24.40
2024-01-16T07:21:46.846Z,23.80
2024-01-16T07:23:49.802Z,24.60
2024-01-16T07:25:52.013Z,26.70
2024-01-16T07:27:54.102Z,24.90
2024-01-16T07:29:55.936Z,24.50
2024-01-16T07:31:57.878Z,23.70
2024-01-16T07:33:59.779Z,26.00
2024-01-16T07:36:02.112Z,25.70
2024-01-16T07:38:05.859Z,23.70
2024-01-16T07:40:10.933Z,22.40
2024-01-16T07:42:12.904Z,26.70
2024-01-16T07:44:14.660Z,22.40
2024-01-16T07:46:17.629Z,26.70
2024-01-16T07:48:19.692Z,21.70
2024-01-16T07:50:21.905Z,20.40
2024-01-16T07:52:23.680Z,25.50
2024-01-16T07:54:27.312Z,20.00
2024-01-16T07:56:29.115Z,19.20
2024-01-16T07:58:31.153Z,23.40
2024-01-16T08:00:32.884Z,19.90
2024-01-16T08:02:38.624Z,19.30
2024-01-16T08:04:40.581Z,19.50
2024-01-16T08:06:44.355Z,18.20
2024-01-16T08:08:47.617Z,20.50
2024-01-16T08:10:49.410Z,19.50
2024-01-16T08:12:51.141Z,20.50
2024-01-16T08:14:53.566Z,22.30
2024-01-16T08:16:55.544Z,23.00
2024-01-16T08:18:57.752Z,21.20
2024-01-16T08:20:59.611Z,23.00
2024-01-16T08:23:01.342Z,21.60
2024-01-16T08:25:06.081Z,22.50
2024-01-16T08:27:07.758Z,24.00
2024-01-16T08:29:09.520Z,19.60
2024-01-16T08:31:11.302Z,21.90
2024-01-16T08:33:13.848Z,19.40
2024-01-16T08:35:16.003Z,23.20
2024-01-16T08:37:17.923Z,24.20
2024-01-16T08:39:19.796Z,22.30
2024-01-16T08:41:21.662Z,21.00
2024-01-16T08:43:25.526Z,23.80
2024-01-16T08:45:27.693Z,21.30
2024-01-16T08:47:30.708Z,19.50
2024-01-16T08:49:33.967Z,19.70
2024-01-16T08:51:36.633Z,18.20
2024-01-16T08:53:39.139Z,17.60
2024-01-16T08:55:41.381Z,20.20
2024-01-16T08:57:43.081Z,21.40
2024-01-16T08:59:45.574Z,24.50
2024-01-16T09:01:47.423Z,28.00
2024-01-16T09:03:49.306Z,26.20
2024-01-16T09:05:51.155Z,21.30
2024-01-16T09:07:54.017Z,19.60
2024-01-16T09:09:56.213Z,16.30
2024-01-16T09:11:59.290Z,14.90
2024-01-16T09:14:03.687Z,14.60
2024-01-16T09:16:06.574Z,15.60
2024-01-16T09:18:08.452Z,13.20
2024-01-16T09:20:10.828Z,12.30
2024-01-16T09:22:12.900Z,14.90
2024-01-16T09:24:14.668Z,10.90
2024-01-16T09:26:16.456Z,10.20
2024-01-16T09:28:19.689Z,11.20
2024-01-16T09:30:23.986Z,11.20
2024-01-16T09:32:25.881Z,7.70
2024-01-16T09:34:27.862Z,11.30
2024-01-16T09:36:29.647Z,9.10
2024-01-16T09:38:32.441Z,8.90
2024-01-16T09:40:36.551Z,10.60
2024-01-16T09:43:58.849Z,9.10
2024-01-16T09:46:07.382Z,10.50
2024-01-16T09:48:11.868Z,10.10
2024-01-16T09:50:15.750Z,5.90
2024-01-16T09:52:17.756Z,9.10
2024-01-16T09:54:19.561Z,6.30
2024-01-16T09:56:26.329Z,7.90
2024-01-16T09:58:30.121Z,9.10
2024-01-16T10:00:35.544Z,8.20
2024-01-16T10:02:39.095Z,5.90
2024-01-16T10:04:42.983Z,5.60
2024-01-16T10:06:50.460Z,6.90
2024-01-16T10:08:52.619Z,8.70
2024-01-16T10:10:55.124Z,6.20
2024-01-16T10:12:57.931Z,5.70
2024-01-16T10:15:00.767Z,4.40
2024-01-16T10:17:07.240Z,4.20
2024-01-16T10:19:09.553Z,4.80
2024-01-16T10:21:23.341Z,5.40
2024-01-16T10:23:26.324Z,5.40
2024-01-16T10:25:28.188Z,4.60
2024-01-16T10:27:32.112Z,5.10
2024-01-16T10:29:43.395Z,6.50
2024-01-16T10:31:52.030Z,5.10
2024-01-16T10:33:53.953Z,6.30
2024-01-16T10:36:17.889Z,5.90
2024-01-16T10:38:27.159Z,5.10
2024-01-16T10:40:32.303Z,6.00
2024-01-16T10:42:34.197Z,6.90
2024-01-16T10:44:35.959Z,5.10
2024-01-16T10:46:40.496Z,5.00
2024-01-16T10:48:59.533Z,6.70
2024-01-16T10:51:03.887Z,5.10
2024-01-16T10:53:07.335Z,6.80
2024-01-16T10:55:10.809Z,4.10
2024-01-16T10:57:14.812Z,4.50
2024-01-16T10:59:25.710Z,6.70
2024-01-16T11:01:27.963Z,3.10
2024-01-16T11:03:49.955Z,1.20
2024-01-16T11:05:53.613Z,2.90
2024-01-16T11:07:58.497Z,1.10
2024-01-16T11:10:01.633Z,1.40
2024-01-16T11:12:04.676Z,4.60
2024-01-16T11:14:08.113Z,2.00
2024-01-16T11:16:12.682Z,2.60
2024-01-16T11:18:15.734Z,2.10
2024-01-16T11:20:37.562Z,3.30
2024-01-16T11:22:43.029Z,2.90
2024-01-16T11:24:45.595Z,5.30
2024-01-16T11:26:47.625Z,10.00
2024-01-16T11:28:49.630Z,12.60
2024-01-16T11:30:52.600Z,11.80
2024-01-16T11:32:54.598Z,13.70
2024-01-16T11:34:57.281Z,8.60
2024-01-16T11:37:01.518Z,5.50
2024-01-16T11:39:03.750Z,2.60
2024-01-16T11:41:05.626Z,4.40
2024-01-16T11:43:40.518Z,3.30
2024-01-16T11:45:50.661Z,4.40
2024-01-16T11:48:13.322Z,6.70
2024-01-16T11:50:31.177Z,2.90
2024-01-16T11:52:44.357Z,4.10
2024-01-16T11:54:47.944Z,1.20
2024-01-16T11:57:08.328Z,3.20
2024-01-16T11:59:51.415Z,2.30
2024-01-16T12:01:58.889Z,3.00
2024-01-16T12:04:07.418Z,2.70
2024-01-16T12:06:10.696Z,2.20
2024-01-16T12:08:12.966Z,2.50
2024-01-16T12:10:14.981Z,1.10
2024-01-16T12:12:17.208Z,4.10
2024-01-16T12:14:19.292Z,2.90
2024-01-16T12:16:20.976Z,3.90
2024-01-16T12:18:31.026Z,3.60
2024-01-16T12:20:41.464Z,4.10
2024-01-16T12:22:43.468Z,1.90
2024-01-16T12:24:46.720Z,2.10
2024-01-16T12:26:48.676Z,2.40
2024-01-16T12:28:58.585Z,1.80
2024-01-16T12:31:02.870Z,2.60
2024-01-16T12:35:13.178Z,2.80
2024-01-16T12:37:15.562Z,3.60
2024-01-16T12:39:20.368Z,3.60
2024-01-16T12:41:29.547Z,3.00
2024-01-16T12:43:38.666Z,1.90
2024-01-16T12:45:42.399Z,1.50
2024-01-16T12:47:46.329Z,1.90
2024-01-16T12:49:49.088Z,1.90
2024-01-16T12:51:51.946Z,2.40
2024-01-16T12:53:53.850Z,3.40
2024-01-16T12:56:01.207Z,5.40
2024-01-16T12:58:25.848Z,4.20
2024-01-16T13:00:28.128Z,2.20
2024-01-16T13:02:30.192Z,2.40
2024-01-16T13:04:32.140Z,3.40
2024-01-16T13:06:34.899Z,2.40
2024-01-16T13:08:37.002Z,3.20
2024-01-16T13:10:39.264Z,4.60
2024-01-16T13:12:41.246Z,2.30
2024-01-16T13:14:43.199Z,3.90
2024-01-16T13:16:45.037Z,2.70
2024-01-16T13:18:46.788Z,3.50
2024-01-16T13:20:52.013Z,1.30
2024-01-16T13:25:05.358Z,1.70
2024-01-16T13:27:14.258Z,2.50
2024-01-16T13:29:17.126Z,1.50
2024-01-16T13:31:18.997Z,1.50
2024-01-16T13:33:21.104Z,4.10
2024-01-16T13:35:23.133Z,1.40
2024-01-16T13:37:24.937Z,5.60
2024-01-16T13:39:27.546Z,1.40
2024-01-16T13:41:29.225Z,2.60
2024-01-16T13:43:30.980Z,4.00
2024-01-16T13:45:32.756Z,2.50
2024-01-16T13:47:34.774Z,8.30
2024-01-16T13:49:37.326Z,6.40
2024-01-16T13:51:39.239Z,3.00
2024-01-16T13:53:41.057Z,3.70
2024-01-16T13:55:42.771Z,5.20
2024-01-16T13:57:44.538Z,5.70
2024-01-16T13:59:46.244Z,5.60
2024-01-16T14:01:47.954Z,11.00
2024-01-16T14:03:49.740Z,9.10
2024-01-16T14:05:51.625Z,9.30
2024-01-16T14:07:53.584Z,6.80
2024-01-16T14:09:55.511Z,7.10
2024-01-16T14:11:57.971Z,6.10
2024-01-16T14:14:00.799Z,5.90
2024-01-16T14:16:02.516Z,8.40
2024-01-16T14:18:04.761Z,8.40
2024-01-16T14:20:07.151Z,7.80
2024-01-16T14:22:09.224Z,9.40
2024-01-16T14:24:11.198Z,9.10
2024-01-16T14:26:12.991Z,7.30
2024-01-16T14:28:20.844Z,9.80
2024-01-16T14:30:26.772Z,8.60
2024-01-16T14:32:28.583Z,9.30
2024-01-16T14:34:30.470Z,7.80
2024-01-16T14:36:32.242Z,7.10
2024-01-16T14:38:34.050Z,6.10
2024-01-16T14:40:36.672Z,7.20
2024-01-16T14:42:38.980Z,9.50
2024-01-16T14:44:40.743Z,8.20
2024-01-16T14:46:48.614Z,9.00
2024-01-16T14:48:52.031Z,6.60
2024-01-16T14:50:54.073Z,6.50
2024-01-16T14:52:55.903Z,7.20
2024-01-16T14:54:57.614Z,5.90
2024-01-16T14:56:59.433Z,5.80
2024-01-16T14:59:01.208Z,5.70
2024-01-16T15:01:03.003Z,13.40
2024-01-16T15:03:06.361Z,9.30
2024-01-16T15:05:08.267Z,8.40
2024-01-16T15:07:10.951Z,8.60
2024-01-16T15:09:14.055Z,7.30
2024-01-16T15:11:18.651Z,10.40
2024-01-16T15:13:21.697Z,8.20
2024-01-16T15:15:24.528Z,11.00
2024-01-16T15:17:28.718Z,11.70
2024-01-16T15:19:30.581Z,10.80
2024-01-16T15:21:32.340Z,8.30
2024-01-16T15:23:34.063Z,5.80
2024-01-16T15:25:35.850Z,10.20
2024-01-16T15:27:37.716Z,10.10
2024-01-16T15:29:39.470Z,12.00
2024-01-16T15:31:41.453Z,13.90
2024-01-16T15:33:43.272Z,11.20
2024-01-16T15:35:45.000Z,10.50
2024-01-16T15:37:47.138Z,7.50
2024-01-16T15:39:49.352Z,9.10
2024-01-16T15:41:51.203Z,16.80
2024-01-16T15:43:53.000Z,10.50
2024-01-16T15:45:54.712Z,10.90
2024-01-16T15:47:56.681Z,8.70
2024-01-16T15:49:58.980Z,9.20
2024-01-16T15:52:00.652Z,10.20
2024-01-16T15:54:02.513Z,9.10
2024-01-16T15:56:08.748Z,10.00
2024-01-16T15:58:13.533Z,10.40
2024-01-16T16:00:17.487Z,9.60
2024-01-16T16:02:20.025Z,9.20
2024-01-16T16:04:22.541Z,9.90
2024-01-16T16:06:24.427Z,8.10
2024-01-16T16:08:26.572Z,9.30
2024-01-16T16:10:28.553Z,10.90
2024-01-16T16:12:31.169Z,9.80
2024-01-16T16:14:32.891Z,9.10
2024-01-16T16:16:34.709Z,7.20
2024-01-16T16:18:38.264Z,9.20
2024-01-16T16:20:40.198Z,11.40
2024-01-16T16:22:42.227Z,11.70
2024-01-16T16:24:44.881Z,11.80
2024-01-16T16:26:47.159Z,9.40
2024-01-16T16:28:49.305Z,12.00
2024-01-16T16:30:51.030Z,11.10
2024-01-16T16:32:52.795Z,10.30
2024-01-16T16:34:54.763Z,10.90
2024-01-16T16:36:56.706Z,15.50
2024-01-16T16:39:00.738Z,13.60
2024-01-16T16:41:03.533Z,10.70
2024-01-16T16:43:05.636Z,12.50
2024-01-16T16:45:10.141Z,14.50
2024-01-16T16:47:12.513Z,10.20
2024-01-16T16:49:14.382Z,9.90
2024-01-16T16:51:21.015Z,10.40
2024-01-16T16:53:25.153Z,12.50
2024-01-16T16:55:28.876Z,10.30
2024-01-16T16:57:30.586Z,10.00
2024-01-16T16:59:32.542Z,9.60
2024-01-16T17:01:36.865Z,8.60
2024-01-16T17:03:39.925Z,9.60
2024-01-16T17:05:41.936Z,12.60
2024-01-16T17:07:43.931Z,8.20
2024-01-16T17:09:45.895Z,13.70
2024-01-16T17:11:47.925Z,14.20
2024-01-16T17:13:49.913Z,11.60
2024-01-16T17:15:51.696Z,11.80
2024-01-16T17:17:53.447Z,11.60
2024-01-16T17:19:55.256Z,11.10
2024-01-16T17:21:56.990Z,11.40
2024-01-16T17:23:58.813Z,7.40
2024-01-16T17:26:01.831Z,11.30
2024-01-16T17:28:03.845Z,8.90
2024-01-16T17:30:08.962Z,12.00
2024-01-16T17:34:13.853Z,12.40
2024-01-16T17:36:17.654Z,10.90
2024-01-16T17:38:21.949Z,8.60
2024-01-16T17:40:23.904Z,8.30
2024-01-16T17:42:26.694Z,9.20
2024-01-16T17:44:28.503Z,9.20
2024-01-16T17:46:30.931Z,13.30
2024-01-16T17:48:35.627Z,10.30
2024-01-16T17:50:38.595Z,8.70
2024-01-16T17:52:40.425Z,7.10
2024-01-16T17:54:42.265Z,10.80
2024-01-16T17:56:49.698Z,9.60
2024-01-16T17:58:51.504Z,7.10
2024-01-16T18:00:54.516Z,11.20
2024-01-16T18:02:58.276Z,14.70
2024-01-16T18:05:00.164Z,8.50
2024-01-16T18:07:03.073Z,7.00
2024-01-16T18:09:11.117Z,7.80
2024-01-16T18:11:14.210Z,5.30
2024-01-16T18:13:16.536Z,7.30
2024-01-16T18:15:19.342Z,10.10
2024-01-16T18:17:23.557Z,6.90
2024-01-16T18:19:26.143Z,10.00
2024-01-16T18:21:28.074Z,8.60
2024-01-16T18:23:30.992Z,11.10
2024-01-16T18:25:33.893Z,8.60
2024-01-16T18:27:37.237Z,10.10
2024-01-16T18:29:38.987Z,8.30
2024-01-16T18:31:41.508Z,8.20
2024-01-16T18:33:44.979Z,9.40
2024-01-16T18:35:47.023Z,7.00
2024-01-16T18:37:49.001Z,5.60
2024-01-16T18:39:51.448Z,8.40
2024-01-16T18:41:53.217Z,7.20
2024-01-16T18:43:55.087Z,7.60
2024-01-16T18:45:58.144Z,9.10
2024-01-16T18:48:01.262Z,15.10
2024-01-16T18:50:04.334Z,7.60
2024-01-16T18:52:07.026Z,10.70
2024-01-16T18:54:09.362Z,8.60
2024-01-16T18:56:15.748Z,12.20
2024-01-16T18:58:18.200Z,10.60
2024-01-16T19:00:23.402Z,11.00
2024-01-16T19:04:30.508Z,12.10
2024-01-16T19:06:32.697Z,8.30
2024-01-16T19:08:34.630Z,11.50
2024-01-16T19:10:36.307Z,14.90
2024-01-16T19:12:38.014Z,13.80
2024-01-16T19:14:45.788Z,11.70
2024-01-16T19:16:51.348Z,9.20
2024-01-16T19:18:53.241Z,10.60
2024-01-16T19:20:55.124Z,14.40
2024-01-16T19:22:57.083Z,14.80
2024-01-16T19:25:00.934Z,12.10
2024-01-16T19:27:02.751Z,12.00
2024-01-16T19:29:04.543Z,11.30
2024-01-16T19:31:06.392Z,11.10
2024-01-16T19:33:09.581Z,12.20
2024-01-16T19:35:13.156Z,11.20
2024-01-16T19:37:15.477Z,13.70
2024-01-16T19:39:17.231Z,13.60
2024-01-16T19:41:21.107Z,15.00
2024-01-16T19:43:22.927Z,13.90
2024-01-16T19:45:24.797Z,14.40
2024-01-16T19:47:26.628Z,11.80
2024-01-16T19:49:28.382Z,11.40
2024-01-16T19:51:31.076Z,13.60
2024-01-16T19:53:33.414Z,16.50
2024-01-16T19:55:35.275Z,12.60
2024-01-16T19:57:37.071Z,9.50
2024-01-16T19:59:38.914Z,11.90
2024-01-16T20:01:40.880Z,12.90
2024-01-16T20:03:44.555Z,17.90
2024-01-16T20:05:46.935Z,18.80
2024-01-16T20:07:49.501Z,12.40
2024-01-16T20:09:51.332Z,15.40
2024-01-16T20:11:53.654Z,10.90
2024-01-16T20:13:55.685Z,11.60
2024-01-16T20:15:57.469Z,13.40
2024-01-16T20:18:02.751Z,9.00
2024-01-16T20:20:06.686Z,13.90
2024-01-16T20:22:08.709Z,13.40
2024-01-16T20:24:12.527Z,13.70
2024-01-16T20:26:14.302Z,10.80
2024-01-16T20:28:16.025Z,12.50
2024-01-16T20:30:18.645Z,14.50
2024-01-16T20:32:22.224Z,10.60
2024-01-16T20:34:24.362Z,11.80
2024-01-16T20:36:26.311Z,9.70
2024-01-16T20:38:28.112Z,14.50
2024-01-16T20:40:29.869Z,10.60
2024-01-16T20:42:32.610Z,11.70
2024-01-16T20:44:35.288Z,11.90
2024-01-16T20:46:38.743Z,11.60
2024-01-16T20:48:40.985Z,11.80
2024-01-16T20:50:43.010Z,9.90
2024-01-16T20:52:44.714Z,9.50
2024-01-16T20:54:46.455Z,11.90
2024-01-16T20:56:49.224Z,10.60
2024-01-16T20:58:51.162Z,9.60
2024-01-16T21:00:53.380Z,9.50
2024-01-16T21:02:57.552Z,11.90
2024-01-16T21:04:59.988Z,16.80
2024-01-16T21:07:04.787Z,22.80
2024-01-16T21:11:08.754Z,23.70
2024-01-16T21:13:10.982Z,19.50
2024-01-16T21:15:12.668Z,17.60
2024-01-16T21:17:14.410Z,17.90
2024-01-16T21:19:19.537Z,16.30
2024-01-16T21:21:21.492Z,14.40
2024-01-16T21:23:23.234Z,17.90
2024-01-16T21:25:25.733Z,21.20
2024-01-16T21:27:27.459Z,20.50
2024-01-16T21:29:29.457Z,23.40
2024-01-16T21:31:31.242Z,22.10
2024-01-16T21:33:33.436Z,15.00
2024-01-16T21:35:35.475Z,11.50
2024-01-16T21:37:38.049Z,13.20
2024-01-16T21:39:39.827Z,9.80
2024-01-16T21:41:44.034Z,6.90
2024-01-16T21:43:46.002Z,7.70
2024-01-16T21:45:47.748Z,7.80
2024-01-16T21:47:49.716Z,9.00
2024-01-16T21:49:52.713Z,11.80
2024-01-16T21:51:54.697Z,9.40
2024-01-16T21:53:57.142Z,6.20
2024-01-16T21:55:58.974Z,7.10
2024-01-16T22:00:13.216Z,10.60
2024-01-16T22:02:15.994Z,9.30
2024-01-16T22:04:17.811Z,8.20
2024-01-16T22:06:21.520Z,6.60
2024-01-16T22:08:24.589Z,7.20
2024-01-16T22:10:26.302Z,8.20
2024-01-16T22:12:28.064Z,9.20
2024-01-16T22:14:30.050Z,5.50
2024-01-16T22:16:33.499Z,7.70
2024-01-16T22:18:35.894Z,6.70
2024-01-16T22:20:37.974Z,6.30
2024-01-16T22:22:41.144Z,7.20
2024-01-16T22:24:42.905Z,5.70
2024-01-16T22:26:45.081Z,7.30
2024-01-16T22:28:47.659Z,7.50
2024-01-16T22:30:49.458Z,7.50
2024-01-16T22:32:51.354Z,12.90
2024-01-16T22:34:53.226Z,8.00
2024-01-16T22:36:54.960Z,10.00
2024-01-16T22:38:56.757Z,10.90
2024-01-16T22:40:58.454Z,10.70
2024-01-16T22:43:00.225Z,10.50
2024-01-16T22:45:02.116Z,7.90
2024-01-16T22:47:04.185Z,7.70
2024-01-16T22:49:06.090Z,10.70
2024-01-16T22:51:08.048Z,9.40
2024-01-16T22:53:09.854Z,11.20
2024-01-16T22:55:11.758Z,11.10
2024-01-16T22:57:13.550Z,9.30
2024-01-16T22:59:15.403Z,8.20
2024-01-16T23:01:17.635Z,10.60
2024-01-16T23:03:20.976Z,7.10
2024-01-16T23:05:28.705Z,7.60
2024-01-16T23:07:31.500Z,7.50
2024-01-16T23:09:34.306Z,7.30
2024-01-16T23:11:36.798Z,8.40
2024-01-16T23:13:38.553Z,8.30
2024-01-16T23:15:40.233Z,10.50
2024-01-16T23:17:43.266Z,6.30
2024-01-16T23:19:45.364Z,10.10
2024-01-16T23:21:48.100Z,6.70
2024-01-16T23:23:52.035Z,6.00
2024-01-16T23:25:53.759Z,10.60
2024-01-16T23:27:55.519Z,6.60
2024-01-16T23:29:57.292Z,9.40
2024-01-16T23:31:59.141Z,6.30
2024-01-16T23:34:01.314Z,7.30
2024-01-16T23:36:03.411Z,6.30
2024-01-16T23:38:07.162Z,7.90
2024-01-16T23:40:10.868Z,6.40
2024-01-16T23:42:16.098Z,9.20
2024-01-16T23:46:20.657Z,7.10
2024-01-16T23:48:22.536Z,7.20
2024-01-16T23:50:25.760Z,5.60
2024-01-16T23:52:27.750Z,7.80
2024-01-16T23:54:29.856Z,7.20
2024-01-16T23:56:31.527Z,5.60
2024-01-16T23:58:33.484Z,5.50
